Atlanta, Georgia
Traffic Map
Current Weather Conditions
Atlanta, Georgia
Clear
Clear
33°
Feels Like: 28°
Wind Chill: 28° Ceiling: Unl
Heat Index: 33° Visibility: 10mi
Dew Point: 28° Wind: 6mph
Humidity: 82% Direction: 290° (WNW)
Pressure: 30.18in Gusts: 0mph
Raw Report DataKATL 111052Z 29005KT 10SM CLR 01/M02 A3018 RMK AO2 SLP227 T00061022
Traffic Incident Summary
Active as of:
Severity:
Category:
InformationThere was an issue retrieving the traffic information for this location. Please try a different location or try again shortly.
Advertisements